Time;durP1;ratioP1;P1;durP2;ratioP2;P2;SDS_P1;SDS_P2;PMS_P1;PMS_P2;Temp;Humidity;BMP_temperature;BMP_pressure;BME280_temperature;BME280_humidity;BME280_pressure;Samples;Min_cycle;Max_cycle;Signal;HPM_P1;HPM_P2
2021/08/16 00:02:13;;;;;;;6.00;2.72;;;20.90;99.90;;;;;;5123490;27;20027;-77
2021/08/16 00:04:40;;;;;;;8.35;2.88;;;20.90;99.90;;;;;;5128509;27;20011;-77
2021/08/16 00:07:08;;;;;;;13.82;3.47;;;20.70;99.90;;;;;;5124958;27;20035;-77
2021/08/16 00:09:34;;;;;;;13.13;3.15;;;20.70;99.90;;;;;;5127841;27;20023;-77
2021/08/16 00:12:00;;;;;;;10.55;3.22;;;20.60;99.90;;;;;;5128255;27;20027;-77
2021/08/16 00:14:26;;;;;;;13.70;3.42;;;20.60;99.90;;;;;;5134585;27;20094;-77
2021/08/16 00:16:52;;;;;;;8.88;2.85;;;20.60;99.90;;;;;;5128115;27;20126;-77
2021/08/16 00:19:18;;;;;;;13.68;3.42;;;20.60;99.90;;;;;;5127077;27;20088;-77
2021/08/16 00:21:44;;;;;;;13.00;3.30;;;20.60;99.90;;;;;;5131730;27;20044;-77
2021/08/16 00:24:10;;;;;;;9.50;3.10;;;20.60;99.90;;;;;;5126926;27;20019;-77
2021/08/16 00:26:36;;;;;;;7.82;3.10;;;20.30;99.90;;;;;;5123073;27;20034;-77
2021/08/16 00:29:02;;;;;;;6.85;3.00;;;20.40;99.90;;;;;;5130058;27;20024;-77
2021/08/16 00:31:28;;;;;;;8.77;3.38;;;20.40;99.90;;;;;;5126339;27;20114;-77
2021/08/16 00:33:56;;;;;;;11.32;3.17;;;20.40;99.90;;;;;;5130255;27;20069;-76
2021/08/16 00:36:22;;;;;;;8.95;3.63;;;20.40;99.90;;;;;;5131844;27;20027;-77
2021/08/16 00:38:48;;;;;;;14.38;3.08;;;20.40;99.90;;;;;;5125962;27;20023;-77
2021/08/16 00:41:17;;;;;;;8.57;3.13;;;20.40;99.90;;;;;;5130079;27;20031;-77
2021/08/16 00:43:44;;;;;;;9.23;3.13;;;20.40;99.90;;;;;;5126887;27;20016;-76
2021/08/16 00:46:13;;;;;;;13.52;3.17;;;20.40;99.90;;;;;;5126432;27;20467;-77
2021/08/16 00:48:41;;;;;;;14.50;3.25;;;20.20;99.90;;;;;;5125998;27;20491;-77
2021/08/16 00:51:07;;;;;;;11.88;3.58;;;20.20;99.90;;;;;;5127233;27;20046;-77
2021/08/16 00:53:33;;;;;;;12.27;3.05;;;20.30;99.90;;;;;;5118220;27;20091;-77
2021/08/16 00:56:00;;;;;;;11.68;3.33;;;20.20;99.90;;;;;;5133203;27;20026;-77
2021/08/16 00:58:27;;;;;;;9.65;3.33;;;20.30;99.90;;;;;;5126399;27;20405;-77
2021/08/16 01:00:58;;;;;;;11.02;2.70;;;20.20;99.90;;;;;;5125852;27;20034;-77
2021/08/16 01:03:25;;;;;;;14.93;3.22;;;20.20;99.90;;;;;;5130318;27;20020;-77
2021/08/16 01:05:53;;;;;;;12.70;3.58;;;20.20;99.90;;;;;;5125232;27;20031;-77
2021/08/16 01:08:21;;;;;;;9.93;2.88;;;20.20;99.90;;;;;;5126413;27;20034;-77
2021/08/16 01:10:47;;;;;;;9.07;2.92;;;20.20;99.90;;;;;;5127236;27;20042;-77
2021/08/16 01:13:15;;;;;;;16.02;3.55;;;20.10;99.90;;;;;;5121724;27;20039;-77
2021/08/16 01:15:56;;;;;;;8.95;3.70;;;20.20;99.90;;;;;;5126937;27;20035;-77
2021/08/16 01:18:23;;;;;;;10.80;2.90;;;20.10;99.90;;;;;;5126610;27;20484;-77
2021/08/16 01:20:52;;;;;;;14.45;3.75;;;20.10;99.90;;;;;;5128421;27;20028;-77
2021/08/16 01:23:21;;;;;;;11.70;3.40;;;20.10;99.90;;;;;;5128828;27;20394;-77
2021/08/16 01:25:51;;;;;;;9.75;3.20;;;20.10;99.90;;;;;;5123203;27;20361;-77
2021/08/16 01:28:20;;;;;;;11.65;3.13;;;20.10;99.90;;;;;;5124628;27;20047;-77
2021/08/16 01:30:49;;;;;;;9.52;2.88;;;20.20;99.90;;;;;;5129224;27;20024;-77
2021/08/16 01:33:16;;;;;;;13.18;3.38;;;20.10;99.90;;;;;;5130169;27;20023;-77
2021/08/16 01:35:42;;;;;;;10.13;3.53;;;20.10;99.90;;;;;;5127839;28;20027;-77
2021/08/16 01:38:09;;;;;;;13.73;3.70;;;20.00;99.90;;;;;;5119600;28;20035;-77
2021/08/16 01:40:35;;;;;;;11.32;3.95;;;20.00;99.90;;;;;;5128216;28;20033;-77
2021/08/16 01:43:00;;;;;;;13.95;3.08;;;20.00;99.90;;;;;;5117452;28;20117;-76
2021/08/16 01:45:26;;;;;;;12.60;4.15;;;20.10;99.90;;;;;;5126912;28;20070;-76
2021/08/16 01:47:52;;;;;;;12.27;3.58;;;20.10;99.90;;;;;;5119963;28;20496;-77
2021/08/16 01:50:18;;;;;;;14.40;4.20;;;19.90;99.90;;;;;;5132571;28;20031;-77
2021/08/16 01:52:44;;;;;;;11.82;4.45;;;19.90;99.90;;;;;;5122528;28;20111;-76
2021/08/16 01:55:10;;;;;;;11.13;4.25;;;19.90;99.90;;;;;;5128500;28;20073;-77
2021/08/16 01:57:36;;;;;;;11.60;3.80;;;20.10;99.90;;;;;;5129004;27;20445;-77
2021/08/16 02:00:03;;;;;;;11.80;4.32;;;20.10;99.90;;;;;;5131181;28;20020;-77
2021/08/16 02:02:31;;;;;;;14.05;4.80;;;20.10;99.90;;;;;;5121501;27;20352;-77
2021/08/16 02:04:57;;;;;;;11.80;5.18;;;20.00;99.90;;;;;;5130084;27;20023;-77
2021/08/16 02:07:23;;;;;;;13.27;4.90;;;19.90;99.90;;;;;;5133311;27;20030;-77
2021/08/16 02:09:48;;;;;;;15.90;5.65;;;19.90;99.90;;;;;;5127169;27;20049;-76
2021/08/16 02:12:14;;;;;;;9.60;5.18;;;19.90;99.90;;;;;;5124771;27;20426;-77
2021/08/16 02:14:39;;;;;;;15.50;5.22;;;19.90;99.90;;;;;;5123886;27;20015;-77
2021/08/16 02:17:05;;;;;;;10.32;4.93;;;19.80;99.90;;;;;;5126457;27;20387;-76
2021/08/16 02:19:31;;;;;;;16.70;5.70;;;19.80;99.90;;;;;;5134998;27;20480;-76
2021/08/16 02:21:57;;;;;;;15.40;5.60;;;19.80;99.90;;;;;;5132911;27;20035;-77
2021/08/16 02:24:23;;;;;;;15.45;5.95;;;19.80;99.90;;;;;;5125530;27;20057;-77
2021/08/16 02:26:48;;;;;;;16.23;5.45;;;19.90;99.90;;;;;;5131313;27;20027;-77
2021/08/16 02:29:14;;;;;;;14.20;5.88;;;19.90;99.90;;;;;;5127566;27;20020;-77
2021/08/16 02:31:40;;;;;;;15.10;5.72;;;19.90;99.90;;;;;;5130259;27;20027;-77
2021/08/16 02:34:06;;;;;;;15.85;5.30;;;19.90;99.90;;;;;;5133459;27;20027;-77
2021/08/16 02:36:33;;;;;;;13.88;6.57;;;20.00;99.90;;;;;;5126922;27;20023;-77
2021/08/16 02:39:00;;;;;;;16.05;5.60;;;20.00;99.90;;;;;;5129394;27;20019;-77
2021/08/16 02:41:25;;;;;;;16.48;5.88;;;19.90;99.90;;;;;;5129416;27;20023;-77
2021/08/16 02:43:52;;;;;;;11.27;5.70;;;19.90;99.90;;;;;;5125754;27;22128;-76
2021/08/16 02:46:19;;;;;;;13.30;5.55;;;19.90;99.90;;;;;;5126408;27;20035;-76
2021/08/16 02:48:45;;;;;;;14.02;5.43;;;20.00;99.90;;;;;;5131468;27;20020;-77
2021/08/16 02:51:11;;;;;;;15.68;5.47;;;19.90;99.90;;;;;;5128499;27;20032;-77
2021/08/16 02:53:37;;;;;;;16.65;6.03;;;20.00;99.90;;;;;;5127635;27;20026;-77
2021/08/16 02:56:03;;;;;;;13.55;5.22;;;20.00;99.90;;;;;;5133923;27;20106;-77
2021/08/16 02:58:29;;;;;;;13.75;4.95;;;19.90;99.90;;;;;;5132511;27;20105;-76
2021/08/16 03:00:54;;;;;;;13.90;5.22;;;20.00;99.90;;;;;;5126358;27;20594;-77
2021/08/16 03:03:21;;;;;;;14.95;5.35;;;19.90;99.90;;;;;;5135485;27;20076;-76
2021/08/16 03:05:47;;;;;;;13.30;4.88;;;19.90;99.90;;;;;;5134561;27;20505;-77
2021/08/16 03:08:12;;;;;;;9.18;4.57;;;19.90;99.90;;;;;;5135186;27;20054;-76
2021/08/16 03:10:38;;;;;;;15.50;4.72;;;19.80;99.90;;;;;;5130613;27;20024;-76
2021/08/16 03:13:04;;;;;;;15.55;4.95;;;19.80;99.90;;;;;;5120473;27;20032;-77
2021/08/16 03:15:29;;;;;;;13.77;5.07;;;19.80;99.90;;;;;;5130930;27;20027;-76
2021/08/16 03:17:55;;;;;;;14.95;5.15;;;19.80;99.90;;;;;;5133466;27;20023;-76
2021/08/16 03:20:21;;;;;;;18.17;4.70;;;19.80;99.90;;;;;;5132551;27;20019;-76
2021/08/16 03:22:47;;;;;;;15.63;5.38;;;19.80;99.90;;;;;;5124652;27;20063;-77
2021/08/16 03:25:13;;;;;;;14.57;5.32;;;19.70;99.90;;;;;;5129779;27;20055;-76
2021/08/16 03:27:38;;;;;;;15.68;4.70;;;19.80;99.90;;;;;;5133001;27;20113;-76
2021/08/16 03:30:06;;;;;;;18.25;4.80;;;19.60;99.90;;;;;;5131641;27;20341;-76
2021/08/16 03:32:33;;;;;;;10.90;4.97;;;19.60;99.90;;;;;;5124955;27;20036;-76
2021/08/16 03:34:59;;;;;;;11.82;4.80;;;19.70;99.90;;;;;;5124313;27;20080;-76
2021/08/16 03:37:31;;;;;;;11.45;4.75;;;19.70;99.90;;;;;;5123281;27;20027;-76
2021/08/16 03:39:58;;;;;;;14.82;4.65;;;19.70;99.90;;;;;;5125303;27;20080;-77
2021/08/16 03:42:23;;;;;;;12.75;4.45;;;19.80;99.90;;;;;;5134860;27;20031;-76
2021/08/16 03:44:49;;;;;;;16.15;5.47;;;19.80;99.90;;;;;;5131680;27;20087;-76
2021/08/16 03:47:14;;;;;;;14.32;4.55;;;19.80;99.90;;;;;;5127596;27;20432;-76
2021/08/16 03:49:40;;;;;;;18.30;4.78;;;19.80;99.90;;;;;;5133100;27;20026;-76
2021/08/16 03:52:06;;;;;;;14.13;5.05;;;19.90;99.90;;;;;;5123664;27;20042;-76
2021/08/16 03:54:32;;;;;;;13.82;4.45;;;19.90;99.90;;;;;;5131378;27;20471;-76
2021/08/16 03:56:57;;;;;;;9.10;3.95;;;19.70;99.90;;;;;;5125973;27;20059;-77
2021/08/16 03:59:23;;;;;;;10.63;4.28;;;19.70;99.90;;;;;;5133186;27;20023;-76
2021/08/16 04:01:49;;;;;;;13.10;3.97;;;19.70;99.90;;;;;;5128405;27;20106;-76
2021/08/16 04:04:15;;;;;;;11.35;4.60;;;19.60;99.90;;;;;;5130742;27;20027;-76
2021/08/16 04:06:40;;;;;;;11.40;4.50;;;19.70;99.90;;;;;;5119975;27;20023;-76
2021/08/16 04:09:06;;;;;;;12.13;4.40;;;19.70;99.90;;;;;;5120256;27;20479;-77
2021/08/16 04:11:32;;;;;;;13.60;4.80;;;19.70;99.90;;;;;;5128875;27;20026;-76
2021/08/16 04:13:57;;;;;;;15.82;4.60;;;19.70;99.90;;;;;;5130839;27;20034;-76
2021/08/16 04:16:23;;;;;;;13.27;3.92;;;19.80;99.90;;;;;;5129842;27;20369;-76
2021/08/16 04:18:49;;;;;;;14.40;4.28;;;19.80;99.90;;;;;;5124313;27;20027;-76
2021/08/16 04:21:15;;;;;;;11.77;4.32;;;19.80;99.90;;;;;;5130655;27;20068;-76
2021/08/16 04:23:41;;;;;;;12.18;4.50;;;19.80;99.90;;;;;;5131425;27;20015;-76
2021/08/16 04:26:08;;;;;;;12.70;3.97;;;19.80;99.90;;;;;;5131615;27;20083;-76
2021/08/16 04:28:33;;;;;;;10.15;4.15;;;19.80;99.90;;;;;;5127216;27;20063;-76
2021/08/16 04:30:59;;;;;;;10.18;4.00;;;19.80;99.90;;;;;;5130895;27;20432;-76
2021/08/16 04:33:25;;;;;;;12.55;3.97;;;19.80;99.90;;;;;;5128728;27;20076;-76
2021/08/16 04:35:52;;;;;;;11.38;4.55;;;19.80;99.90;;;;;;5129677;27;20023;-76
2021/08/16 04:38:19;;;;;;;15.20;5.10;;;19.70;99.90;;;;;;5126887;27;20046;-76
2021/08/16 04:40:46;;;;;;;9.82;4.35;;;19.80;99.90;;;;;;5127692;27;20031;-76
2021/08/16 04:43:12;;;;;;;13.63;4.07;;;19.80;99.90;;;;;;5132247;27;20427;-76
2021/08/16 04:45:37;;;;;;;9.27;3.38;;;19.80;99.90;;;;;;5127441;27;20076;-76
2021/08/16 04:48:03;;;;;;;9.95;3.90;;;19.80;99.90;;;;;;5127299;27;20015;-76
2021/08/16 04:50:29;;;;;;;8.27;3.85;;;19.70;99.90;;;;;;5125971;27;20045;-76
2021/08/16 04:52:56;;;;;;;6.38;3.40;;;19.70;99.90;;;;;;5122438;27;20482;-76
2021/08/16 04:55:21;;;;;;;9.18;3.35;;;19.60;99.90;;;;;;5122877;27;20089;-76
2021/08/16 04:57:47;;;;;;;14.85;4.07;;;19.80;99.90;;;;;;5125463;27;20022;-76
2021/08/16 05:00:14;;;;;;;10.60;3.55;;;19.70;99.90;;;;;;5128219;27;20034;-76
2021/08/16 05:02:41;;;;;;;7.25;3.33;;;19.80;99.90;;;;;;5128955;27;20094;-76
2021/08/16 05:05:09;;;;;;;10.15;3.40;;;19.70;99.90;;;;;;5132422;27;20031;-76
2021/08/16 05:07:37;;;;;;;11.65;4.07;;;19.80;99.90;;;;;;5126374;27;20409;-76
2021/08/16 05:10:07;;;;;;;11.27;3.85;;;19.70;99.90;;;;;;5132102;27;20026;-76
2021/08/16 05:12:35;;;;;;;8.52;3.90;;;19.70;99.90;;;;;;5120713;27;20034;-76
2021/08/16 05:15:02;;;;;;;8.15;3.40;;;19.70;99.90;;;;;;5127210;27;20460;-76
2021/08/16 05:17:28;;;;;;;12.75;3.40;;;19.70;99.90;;;;;;5127649;27;20084;-76
2021/08/16 05:19:55;;;;;;;15.63;3.75;;;19.70;99.90;;;;;;5131608;27;20047;-76
2021/08/16 05:22:20;;;;;;;13.57;3.63;;;19.70;99.90;;;;;;5125848;27;20041;-76
2021/08/16 05:24:46;;;;;;;13.65;4.03;;;19.70;99.90;;;;;;5123874;27;20102;-76
2021/08/16 05:27:12;;;;;;;13.18;3.75;;;19.70;99.90;;;;;;5126872;28;20079;-76
2021/08/16 05:29:37;;;;;;;11.68;3.75;;;19.70;99.90;;;;;;5129852;27;20070;-76
2021/08/16 05:32:03;;;;;;;19.00;4.10;;;19.70;99.90;;;;;;5127888;27;20015;-76
2021/08/16 05:34:30;;;;;;;14.02;3.67;;;19.70;99.90;;;;;;5130204;27;20034;-76
2021/08/16 05:36:57;;;;;;;13.73;4.05;;;19.70;99.90;;;;;;5129880;27;20031;-76
2021/08/16 05:39:22;;;;;;;15.73;4.50;;;19.60;99.90;;;;;;5126860;28;20080;-76
2021/08/16 05:41:48;;;;;;;15.48;3.95;;;19.60;99.90;;;;;;5129573;28;20491;-76
2021/08/16 05:44:14;;;;;;;9.77;4.13;;;19.50;99.90;;;;;;5127834;28;20023;-76
2021/08/16 05:46:40;;;;;;;10.82;4.13;;;19.40;99.90;;;;;;5125781;28;20023;-76
2021/08/16 05:49:05;;;;;;;11.75;4.95;;;19.40;99.90;;;;;;5127383;28;20102;-76
2021/08/16 05:51:31;;;;;;;13.45;4.68;;;19.40;99.90;;;;;;5124197;28;20432;-76
2021/08/16 05:53:56;;;;;;;13.98;4.35;;;19.60;99.90;;;;;;5129702;28;20023;-75
2021/08/16 05:56:24;;;;;;;11.15;4.47;;;19.60;99.90;;;;;;5120160;28;20102;-76
2021/08/16 05:58:50;;;;;;;18.95;4.63;;;19.60;99.90;;;;;;5127091;28;20119;-76
2021/08/16 06:01:16;;;;;;;10.95;5.05;;;19.60;99.90;;;;;;5132349;28;20491;-76
2021/08/16 06:03:42;;;;;;;13.57;4.88;;;19.60;99.90;;;;;;5129386;28;20434;-76
2021/08/16 06:06:08;;;;;;;10.95;4.30;;;19.60;99.90;;;;;;5123743;28;20035;-76
2021/08/16 06:08:33;;;;;;;12.73;4.75;;;19.50;99.90;;;;;;5130638;28;20024;-76
2021/08/16 06:10:59;;;;;;;12.25;4.53;;;19.50;99.90;;;;;;5126675;28;20015;-76
2021/08/16 06:13:27;;;;;;;13.73;4.75;;;19.50;99.90;;;;;;5127087;28;20500;-76
2021/08/16 06:15:52;;;;;;;12.63;4.60;;;19.60;99.90;;;;;;5130653;28;20391;-76
2021/08/16 06:18:18;;;;;;;14.07;4.05;;;19.60;99.90;;;;;;5124449;28;20036;-76
2021/08/16 06:20:43;;;;;;;12.60;4.40;;;19.60;99.90;;;;;;5121131;28;20028;-76
2021/08/16 06:23:09;;;;;;;16.90;4.78;;;19.70;99.90;;;;;;5120614;28;20099;-76
2021/08/16 06:25:35;;;;;;;11.75;4.47;;;19.70;99.90;;;;;;5127762;28;20028;-76
2021/08/16 06:28:00;;;;;;;14.45;4.40;;;19.60;99.90;;;;;;5117208;28;20036;-76
2021/08/16 06:30:26;;;;;;;13.75;4.82;;;19.70;99.90;;;;;;5124971;28;20027;-76
2021/08/16 06:32:51;;;;;;;12.63;5.00;;;19.70;99.90;;;;;;5120047;28;20120;-76
2021/08/16 06:35:18;;;;;;;9.68;3.97;;;19.80;99.90;;;;;;5123185;28;20364;-76
2021/08/16 06:37:45;;;;;;;14.88;4.38;;;19.80;99.90;;;;;;5128322;28;20069;-76
2021/08/16 06:40:12;;;;;;;9.85;4.10;;;19.90;99.90;;;;;;5129474;27;20049;-76
2021/08/16 06:42:38;;;;;;;9.98;4.20;;;19.70;99.90;;;;;;5132049;27;20104;-76
2021/08/16 06:45:05;;;;;;;12.27;4.15;;;19.70;99.90;;;;;;5124121;28;20024;-76
2021/08/16 06:47:31;;;;;;;11.77;4.43;;;19.70;99.90;;;;;;5122315;28;20027;-76
2021/08/16 06:49:57;;;;;;;10.20;3.92;;;19.80;99.90;;;;;;5122701;27;20177;-76
2021/08/16 06:52:23;;;;;;;11.73;4.10;;;19.90;99.90;;;;;;5129658;27;20518;-76
2021/08/16 06:54:52;;;;;;;16.40;4.35;;;19.80;99.90;;;;;;5127583;27;20098;-76
2021/08/16 06:57:17;;;;;;;16.95;4.60;;;19.90;99.90;;;;;;5128208;27;20031;-76
2021/08/16 06:59:43;;;;;;;11.20;4.30;;;19.90;99.90;;;;;;5134408;27;20021;-76
2021/08/16 07:02:09;;;;;;;9.98;4.38;;;20.00;99.90;;;;;;5132864;27;20088;-76
2021/08/16 07:04:36;;;;;;;16.17;4.75;;;20.00;99.90;;;;;;5123917;27;20106;-76
2021/08/16 07:07:02;;;;;;;15.85;4.80;;;20.10;99.90;;;;;;5133260;27;20110;-76
2021/08/16 07:09:27;;;;;;;12.80;4.18;;;20.10;99.90;;;;;;5131905;27;20471;-76
2021/08/16 07:11:55;;;;;;;15.27;4.68;;;20.00;99.90;;;;;;5131641;27;20072;-76
2021/08/16 07:14:21;;;;;;;13.80;4.60;;;20.10;99.90;;;;;;5131780;27;20455;-76
2021/08/16 07:16:47;;;;;;;11.63;4.30;;;20.10;99.90;;;;;;5132198;27;20042;-73
2021/08/16 07:19:12;;;;;;;8.15;3.70;;;20.10;99.90;;;;;;5129749;27;20072;-73
2021/08/16 07:21:38;;;;;;;14.38;4.95;;;20.20;99.90;;;;;;5128280;27;20125;-73
2021/08/16 07:24:05;;;;;;;17.48;5.18;;;20.30;99.90;;;;;;5121197;27;20059;-74
2021/08/16 07:26:31;;;;;;;16.23;4.13;;;20.20;99.90;;;;;;5127752;27;20027;-73
2021/08/16 07:28:57;;;;;;;9.43;4.28;;;20.40;99.90;;;;;;5125719;27;20042;-73
2021/08/16 07:31:22;;;;;;;12.43;4.97;;;20.40;99.90;;;;;;5130091;27;20020;-73
2021/08/16 07:33:49;;;;;;;8.80;4.63;;;20.50;99.90;;;;;;5130973;27;20103;-74
2021/08/16 07:36:15;;;;;;;6.63;4.28;;;20.50;99.90;;;;;;5130752;27;20114;-73
2021/08/16 07:38:41;;;;;;;14.93;4.55;;;20.50;99.90;;;;;;5123739;27;20454;-73
2021/08/16 07:41:06;;;;;;;9.52;4.32;;;20.50;99.90;;;;;;5123361;27;20028;-74
2021/08/16 07:43:32;;;;;;;8.75;4.20;;;20.60;99.90;;;;;;5128976;27;20041;-73
2021/08/16 07:45:58;;;;;;;12.75;4.55;;;20.70;99.90;;;;;;5127221;27;20098;-74
2021/08/16 07:48:23;;;;;;;9.07;4.55;;;20.80;99.90;;;;;;5127939;27;20047;-73
2021/08/16 07:50:50;;;;;;;11.38;4.65;;;20.90;99.90;;;;;;5128825;27;20035;-74
2021/08/16 07:53:16;;;;;;;8.63;3.97;;;20.90;99.90;;;;;;5124319;27;20034;-73
2021/08/16 07:55:41;;;;;;;8.48;4.30;;;20.90;99.90;;;;;;5127133;27;20019;-73
2021/08/16 07:58:07;;;;;;;13.82;4.40;;;20.90;99.90;;;;;;5127806;27;20536;-73
2021/08/16 08:00:33;;;;;;;9.68;4.45;;;20.90;99.90;;;;;;5125888;27;20020;-74
2021/08/16 08:02:59;;;;;;;16.98;4.45;;;20.70;99.90;;;;;;5131423;27;20030;-73
2021/08/16 08:05:25;;;;;;;10.18;4.45;;;20.80;99.90;;;;;;5126272;27;20027;-74
2021/08/16 08:07:51;;;;;;;8.23;4.35;;;20.80;99.90;;;;;;5130444;27;20487;-73
2021/08/16 08:10:18;;;;;;;12.07;4.90;;;20.70;99.90;;;;;;5133923;27;20015;-74
2021/08/16 08:12:46;;;;;;;10.38;4.55;;;20.70;99.90;;;;;;5133056;27;20122;-74
2021/08/16 08:15:12;;;;;;;9.30;4.43;;;20.70;99.90;;;;;;5128573;27;20068;-73
2021/08/16 08:17:39;;;;;;;12.23;4.10;;;20.70;99.90;;;;;;5126921;27;20031;-73
2021/08/16 08:20:07;;;;;;;7.07;4.03;;;20.80;99.90;;;;;;5132003;27;20023;-73
2021/08/16 08:22:34;;;;;;;11.93;4.78;;;20.70;99.90;;;;;;5124114;27;20038;-73
2021/08/16 08:25:00;;;;;;;9.70;4.43;;;20.60;99.90;;;;;;5132066;27;20027;-73
2021/08/16 08:27:26;;;;;;;8.70;4.13;;;20.50;99.90;;;;;;5125958;27;20383;-73
2021/08/16 08:29:51;;;;;;;7.90;4.07;;;20.50;99.90;;;;;;5128930;27;20038;-74
2021/08/16 08:32:17;;;;;;;9.80;4.57;;;20.60;99.90;;;;;;5126665;27;20483;-73
2021/08/16 08:34:44;;;;;;;11.40;4.20;;;20.70;99.90;;;;;;5130817;27;20483;-73
2021/08/16 08:37:11;;;;;;;7.03;4.70;;;20.80;99.90;;;;;;5129069;27;20388;-73
2021/08/16 08:39:37;;;;;;;7.00;4.32;;;20.70;99.90;;;;;;5124188;27;20023;-73
2021/08/16 08:42:04;;;;;;;6.57;4.05;;;20.70;99.90;;;;;;5123454;27;20023;-74
2021/08/16 08:44:32;;;;;;;9.30;4.88;;;20.70;99.90;;;;;;5124749;27;20479;-73
2021/08/16 08:46:58;;;;;;;7.78;4.72;;;20.60;99.90;;;;;;5134341;27;20023;-73
2021/08/16 08:49:24;;;;;;;9.15;5.03;;;20.50;99.90;;;;;;5131973;27;20027;-73
2021/08/16 08:51:50;;;;;;;11.25;5.60;;;20.50;99.90;;;;;;5125100;27;20029;-73
2021/08/16 08:54:16;;;;;;;6.57;4.32;;;20.30;99.90;;;;;;5121779;27;20027;-74
2021/08/16 08:56:43;;;;;;;4.90;2.70;;;20.20;99.90;;;;;;5126304;27;20015;-75
2021/08/16 08:59:11;;;;;;;9.95;3.40;;;19.90;99.90;;;;;;5134628;27;20409;-73
2021/08/16 09:01:37;;;;;;;3.35;2.65;;;19.80;99.90;;;;;;5126906;27;20031;-74
2021/08/16 09:04:04;;;;;;;7.68;2.50;;;19.70;99.90;;;;;;5127519;27;20482;-73
2021/08/16 09:06:38;;;;;;;3.35;2.38;;;19.60;99.90;;;;;;5122674;27;20072;-73
2021/08/16 09:09:09;;;;;;;4.85;2.35;;;19.60;99.90;;;;;;5122804;27;20019;-74
2021/08/16 09:11:34;;;;;;;5.57;2.80;;;19.60;99.90;;;;;;5121157;27;20044;-74
2021/08/16 09:14:03;;;;;;;5.35;2.53;;;19.60;99.90;;;;;;5122167;27;20400;-74
2021/08/16 09:16:31;;;;;;;4.22;3.72;;;19.60;99.90;;;;;;5130318;27;20058;-73
2021/08/16 09:18:58;;;;;;;3.95;3.55;;;19.70;99.90;;;;;;5122408;27;20027;-73
2021/08/16 09:21:37;;;;;;;5.50;3.70;;;19.70;99.90;;;;;;5120739;27;20176;-73
2021/08/16 09:24:04;;;;;;;4.85;3.63;;;19.80;99.90;;;;;;5126249;27;20028;-73
2021/08/16 09:26:33;;;;;;;4.70;4.10;;;19.80;99.90;;;;;;5127015;27;20030;-73
2021/08/16 09:29:20;;;;;;;5.50;4.65;;;19.70;99.90;;;;;;5130023;27;20075;-73
2021/08/16 09:32:01;;;;;;;8.35;5.43;;;19.60;99.90;;;;;;5123245;27;20019;-72
2021/08/16 09:34:59;;;;;;;8.38;5.35;;;19.40;99.90;;;;;;5130128;27;20027;-73
2021/08/16 09:37:26;;;;;;;7.18;4.63;;;19.40;99.90;;;;;;5100779;28;20067;-73
2021/08/16 09:40:09;;;;;;;7.40;4.93;;;19.30;99.90;;;;;;5119419;27;20016;-73
2021/08/16 09:42:46;;;;;;;10.98;6.10;;;19.40;99.90;;;;;;5118945;28;20031;-72
2021/08/16 09:45:33;;;;;;;7.63;4.85;;;19.40;99.90;;;;;;5118772;28;20030;-75
2021/08/16 09:48:00;;;;;;;7.85;5.72;;;19.50;99.90;;;;;;5120489;28;20039;-75
2021/08/16 09:50:56;;;;;;;8.50;5.45;;;19.70;99.90;;;;;;5123854;27;20024;-76
2021/08/16 09:53:24;;;;;;;7.93;5.22;;;19.90;99.90;;;;;;5114185;28;20125;-76
2021/08/16 09:55:52;;;;;;;6.43;4.78;;;19.80;99.90;;;;;;5120615;27;20023;-76
2021/08/16 09:58:19;;;;;;;9.27;5.15;;;19.90;99.90;;;;;;5124187;28;20106;-75
2021/08/16 10:00:47;;;;;;;11.50;5.15;;;20.00;99.90;;;;;;5122500;27;20026;-75
2021/08/16 10:03:13;;;;;;;13.07;5.05;;;19.90;99.90;;;;;;5125080;28;20031;-75
2021/08/16 10:05:42;;;;;;;14.27;5.65;;;20.10;99.90;;;;;;5130786;28;20031;-75
2021/08/16 10:08:10;;;;;;;9.60;5.35;;;20.20;99.90;;;;;;5132045;27;20023;-75
2021/08/16 10:10:37;;;;;;;10.77;5.75;;;20.30;99.90;;;;;;5123055;27;20015;-75
2021/08/16 10:13:05;;;;;;;9.00;5.07;;;20.40;99.90;;;;;;5131099;28;20054;-75
2021/08/16 10:15:43;;;;;;;10.25;4.88;;;20.50;99.90;;;;;;5126447;28;20027;-75
2021/08/16 10:18:14;;;;;;;7.70;4.50;;;20.60;99.90;;;;;;5124718;28;20051;-75
2021/08/16 10:20:40;;;;;;;11.57;4.47;;;20.30;99.90;;;;;;5123214;28;20035;-75
2021/08/16 10:23:19;;;;;;;9.82;3.90;;;20.30;99.90;;;;;;5114587;27;20095;-76
2021/08/16 10:25:48;;;;;;;6.93;4.63;;;20.10;99.90;;;;;;5119381;27;20106;-75
2021/08/16 10:28:29;;;;;;;8.07;4.22;;;20.10;99.90;;;;;;5133227;27;20067;-75
2021/08/16 10:30:57;;;;;;;5.45;4.30;;;20.00;99.90;;;;;;5123126;27;20092;-75
2021/08/16 10:33:23;;;;;;;9.10;4.65;;;20.00;99.90;;;;;;5125458;27;20046;-75
2021/08/16 10:35:50;;;;;;;10.23;4.60;;;19.90;99.90;;;;;;5121386;27;20049;-76
2021/08/16 10:38:18;;;;;;;7.20;4.47;;;20.10;99.90;;;;;;5132020;27;20023;-76
2021/08/16 10:40:48;;;;;;;8.77;4.30;;;20.20;99.90;;;;;;5133796;27;20026;-76
2021/08/16 10:43:15;;;;;;;6.95;4.00;;;20.10;99.90;;;;;;5132843;27;20048;-76
2021/08/16 10:45:48;;;;;;;7.15;4.20;;;19.90;99.90;;;;;;5124748;27;20049;-76
2021/08/16 10:48:34;;;;;;;7.95;4.22;;;19.80;99.90;;;;;;5126211;27;20045;-76
2021/08/16 10:51:06;;;;;;;7.78;4.55;;;19.60;99.90;;;;;;5124207;27;20152;-76
2021/08/16 10:53:33;;;;;;;8.48;5.40;;;19.60;99.90;;;;;;5134447;27;20012;-76
2021/08/16 10:55:59;;;;;;;6.63;4.20;;;19.70;99.90;;;;;;5130565;27;20023;-76
2021/08/16 10:58:25;;;;;;;14.32;4.70;;;19.70;99.90;;;;;;5122307;27;20054;-76
2021/08/16 11:00:52;;;;;;;6.50;5.25;;;19.80;99.90;;;;;;5132327;27;20031;-76
2021/08/16 11:03:25;;;;;;;12.45;5.78;;;19.90;99.90;;;;;;5132504;27;20031;-76
2021/08/16 11:05:51;;;;;;;9.77;4.50;;;19.90;99.90;;;;;;5133379;27;20019;-76
2021/08/16 11:08:16;;;;;;;13.13;5.50;;;20.00;99.90;;;;;;5136031;27;20443;-76
2021/08/16 11:10:47;;;;;;;12.77;5.88;;;20.10;99.90;;;;;;5133567;27;20019;-76
2021/08/16 11:13:21;;;;;;;8.75;5.82;;;20.30;99.90;;;;;;5136542;27;20052;-76
2021/08/16 11:15:49;;;;;;;13.52;8.20;;;20.30;99.90;;;;;;5133336;27;20020;-76
2021/08/16 11:18:20;;;;;;;16.27;9.57;;;20.30;99.90;;;;;;5123460;27;20491;-76
2021/08/16 11:20:59;;;;;;;20.95;10.45;;;20.20;99.90;;;;;;5129516;27;20023;-76
2021/08/16 11:23:28;;;;;;;17.50;9.88;;;20.00;99.90;;;;;;5125541;27;20019;-75
2021/08/16 11:25:56;;;;;;;15.98;10.68;;;20.00;99.90;;;;;;5127178;27;20020;-75
2021/08/16 11:28:23;;;;;;;18.98;9.85;;;20.00;99.90;;;;;;5131739;27;20072;-75
2021/08/16 11:31:00;;;;;;;20.15;11.07;;;19.90;99.90;;;;;;5123379;27;20016;-75
2021/08/16 11:33:26;;;;;;;16.52;9.65;;;19.90;99.90;;;;;;5123171;27;20039;-76
2021/08/16 11:36:09;;;;;;;16.33;10.82;;;19.90;99.90;;;;;;5126089;27;20395;-75
2021/08/16 11:38:35;;;;;;;18.92;11.30;;;19.90;99.90;;;;;;5126195;27;20382;-75
2021/08/16 11:41:07;;;;;;;18.60;11.05;;;19.90;99.90;;;;;;5127914;27;20027;-75
2021/08/16 11:43:33;;;;;;;19.02;12.10;;;19.80;99.90;;;;;;5126805;27;20148;-75
2021/08/16 11:46:15;;;;;;;22.15;13.00;;;19.80;99.90;;;;;;5133598;27;20129;-75
2021/08/16 11:48:43;;;;;;;21.33;13.25;;;19.70;99.90;;;;;;5127617;27;20019;-75
2021/08/16 11:51:09;;;;;;;22.08;12.32;;;19.80;99.90;;;;;;5129022;27;20019;-75
2021/08/16 11:53:42;;;;;;;20.55;11.75;;;19.80;99.90;;;;;;5126740;27;20371;-75
2021/08/16 11:56:08;;;;;;;24.95;12.88;;;19.80;99.90;;;;;;5123031;27;20023;-75
2021/08/16 11:58:39;;;;;;;22.02;13.35;;;19.80;99.90;;;;;;5132539;27;20371;-75
2021/08/16 12:01:09;;;;;;;21.13;12.95;;;20.00;99.90;;;;;;5125317;27;20027;-75
2021/08/16 12:03:35;;;;;;;22.67;12.73;;;20.10;99.90;;;;;;5129679;27;20031;-75
2021/08/16 12:06:13;;;;;;;18.25;11.55;;;20.10;99.90;;;;;;5130010;27;20023;-75
2021/08/16 12:08:41;;;;;;;20.48;12.57;;;20.00;99.90;;;;;;5128245;27;20072;-75
2021/08/16 12:11:15;;;;;;;20.80;13.40;;;20.00;99.90;;;;;;5125714;27;20035;-75
2021/08/16 12:13:41;;;;;;;22.15;13.38;;;20.00;99.90;;;;;;5130879;27;20025;-75
2021/08/16 12:16:08;;;;;;;23.40;13.13;;;20.00;99.90;;;;;;5124445;27;20026;-75
2021/08/16 12:18:34;;;;;;;20.50;12.65;;;19.90;99.90;;;;;;5128464;27;20035;-75
2021/08/16 12:21:00;;;;;;;23.02;13.88;;;19.70;99.90;;;;;;5124615;27;20037;-75
2021/08/16 12:23:28;;;;;;;25.70;14.35;;;19.80;99.90;;;;;;5119432;27;20039;-75
2021/08/16 12:25:55;;;;;;;21.90;13.90;;;19.80;99.90;;;;;;5121961;27;20106;-75
2021/08/16 12:28:20;;;;;;;21.17;12.82;;;19.80;99.90;;;;;;5126415;27;20023;-75
2021/08/16 12:30:47;;;;;;;20.25;14.05;;;19.60;99.90;;;;;;5132696;27;20560;-75
2021/08/16 12:33:15;;;;;;;23.83;15.63;;;19.60;99.90;;;;;;5130211;27;20019;-75
2021/08/16 12:35:53;;;;;;;24.23;13.07;;;19.80;99.90;;;;;;5133539;27;20007;-75
2021/08/16 12:38:25;;;;;;;20.02;13.45;;;19.80;99.90;;;;;;5132085;27;20511;-75
2021/08/16 12:41:07;;;;;;;19.17;13.35;;;19.90;99.90;;;;;;5129594;27;20447;-75